TimeCST,TemperatureF,Dew PointF,Humidity,Sea Level PressureIn,VisibilityMPH,Wind Direction,Wind SpeedMPH,Gust SpeedMPH,PrecipitationIn,Events,Conditions,WindDirDegrees,DateUTC
12:15 AM,44.6,33.8,66,30.02,10.0,South,9.2,-,N/A,,Clear,190,2012-11-22 06:15:00
12:35 AM,44.6,33.8,66,30.02,10.0,SSW,9.2,-,N/A,,Clear,200,2012-11-22 06:35:00
12:55 AM,44.6,35.6,71,30.02,10.0,SSW,10.4,-,N/A,,Clear,210,2012-11-22 06:55:00
1:15 AM,44.6,37.4,76,30.02,10.0,SSW,11.5,-,N/A,,Clear,200,2012-11-22 07:15:00
1:35 AM,44.6,37.4,76,30.01,10.0,SSW,11.5,17.3,N/A,,Clear,200,2012-11-22 07:35:00
1:55 AM,44.6,39.2,81,30.01,7.0,SSW,11.5,-,N/A,,Clear,200,2012-11-22 07:55:00
2:15 AM,44.6,39.2,81,30.01,7.0,SSW,12.7,18.4,N/A,,Clear,200,2012-11-22 08:15:00
2:35 AM,44.6,41.0,87,30.00,7.0,SSW,12.7,18.4,N/A,,Clear,210,2012-11-22 08:35:00
2:55 AM,44.6,41.0,87,30.00,7.0,SSW,11.5,17.3,N/A,,Clear,200,2012-11-22 08:55:00
3:15 AM,44.6,41.0,87,29.99,7.0,South,8.1,16.1,N/A,,Clear,190,2012-11-22 09:15:00
3:35 AM,44.6,41.0,87,29.98,7.0,South,9.2,-,N/A,,Clear,190,2012-11-22 09:35:00
3:55 AM,44.6,41.0,87,29.98,7.0,SSW,6.9,-,N/A,,Clear,200,2012-11-22 09:55:00
4:15 AM,44.6,41.0,87,29.98,7.0,South,8.1,-,N/A,,Clear,180,2012-11-22 10:15:00
4:35 AM,42.8,37.4,81,29.97,7.0,South,8.1,-,N/A,,Clear,170,2012-11-22 10:35:00
5:45 AM,42.8,39.2,87,29.94,5.0,South,9.2,-,N/A,,Clear,170,2012-11-22 11:45:00
6:45 AM,42.8,39.2,87,29.93,5.0,South,10.4,-,N/A,,Clear,170,2012-11-22 12:45:00
7:45 AM,44.6,39.2,81,29.91,7.0,South,11.5,-,N/A,,Clear,180,2012-11-22 13:45:00
8:45 AM,48.2,41.0,76,29.91,7.0,South,15.0,-,N/A,,Clear,180,2012-11-22 14:45:00
9:45 AM,50.0,41.0,71,29.89,10.0,South,8.1,-,N/A,,Partly Cloudy,180,2012-11-22 15:45:00
10:45 AM,55.4,41.0,58,29.86,10.0,South,8.1,-,N/A,,Mostly Cloudy,190,2012-11-22 16:45:00
11:45 AM,60.8,41.0,48,29.81,10.0,South,15.0,-,N/A,,Scattered Clouds,180,2012-11-22 17:45:00
12:45 PM,62.6,42.8,48,29.78,10.0,South,12.7,-,N/A,,Scattered Clouds,180,2012-11-22 18:45:00
1:45 PM,60.8,42.8,52,29.75,10.0,South,17.3,28.8,N/A,,Scattered Clouds,190,2012-11-22 19:45:00
2:45 PM,59.0,42.8,55,29.73,10.0,South,17.3,28.8,N/A,,Scattered Clouds,190,2012-11-22 20:45:00
3:45 PM,59.0,44.6,59,29.73,10.0,South,11.5,23.0,N/A,,Scattered Clouds,190,2012-11-22 21:45:00
4:45 PM,59.0,44.6,59,29.73,10.0,SSW,13.8,25.3,N/A,,Scattered Clouds,200,2012-11-22 22:45:00
5:45 PM,55.4,46.4,72,29.73,10.0,South,11.5,23.0,N/A,,Scattered Clouds,190,2012-11-22 23:45:00
6:45 PM,53.6,48.2,82,29.74,10.0,SSW,11.5,23.0,N/A,,Overcast,200,2012-11-23 00:45:00
7:45 PM,53.6,48.2,82,29.72,10.0,SW,11.5,23.0,N/A,,Mostly Cloudy,220,2012-11-23 01:45:00
8:35 PM,51.8,46.4,82,29.71,10.0,SW,12.7,19.6,N/A,,Scattered Clouds,230,2012-11-23 02:35:00
8:45 PM,53.6,48.2,82,29.71,10.0,SW,13.8,-,N/A,,Clear,220,2012-11-23 02:45:00
8:55 PM,51.8,46.4,82,29.71,10.0,SW,11.5,19.6,N/A,,Clear,230,2012-11-23 02:55:00
9:15 PM,53.6,46.4,77,29.71,10.0,WSW,15.0,24.2,N/A,,Clear,250,2012-11-23 03:15:00
9:35 PM,51.8,44.6,76,29.72,10.0,WSW,17.3,24.2,N/A,,Scattered Clouds,250,2012-11-23 03:35:00
9:55 PM,50.0,41.0,71,29.73,10.0,West,28.8,35.7,N/A,,Mostly Cloudy,270,2012-11-23 03:55:00
10:15 PM,42.8,35.6,76,29.75,10.0,West,25.3,36.8,N/A,,Scattered Clouds,270,2012-11-23 04:15:00
10:35 PM,41.0,35.6,81,29.76,10.0,West,21.9,35.7,N/A,,Clear,270,2012-11-23 04:35:00
10:55 PM,41.0,33.8,76,29.76,10.0,West,28.8,36.8,N/A,,Mostly Cloudy,280,2012-11-23 04:55:00
11:15 PM,41.0,33.8,76,29.78,10.0,West,21.9,33.4,N/A,,Overcast,270,2012-11-23 05:15:00
11:35 PM,41.0,32.0,70,29.78,10.0,West,20.7,32.2,N/A,,Overcast,280,2012-11-23 05:35:00
11:55 PM,39.2,32.0,75,29.79,10.0,West,23.0,29.9,N/A,,Overcast,260,2012-11-23 05:55:00